sensor_id;sensor_type;location;lat;lon;timestamp;P1;durP1;ratioP1;P2;durP2;ratioP2
22282;SDS011;11310;51.528;21.204;2022-07-21T00:02:02;11.00;;;4.25;;
22282;SDS011;11310;51.528;21.204;2022-07-21T00:04:32;8.73;;;4.47;;
22282;SDS011;11310;51.528;21.204;2022-07-21T00:07:04;8.23;;;4.28;;
22282;SDS011;11310;51.528;21.204;2022-07-21T00:09:33;9.80;;;4.60;;
22282;SDS011;11310;51.528;21.204;2022-07-21T00:12:03;8.80;;;4.47;;
22282;SDS011;11310;51.528;21.204;2022-07-21T00:14:33;10.00;;;4.50;;
22282;SDS011;11310;51.528;21.204;2022-07-21T00:17:06;10.77;;;4.88;;
22282;SDS011;11310;51.528;21.204;2022-07-21T00:19:36;7.65;;;4.22;;
22282;SDS011;11310;51.528;21.204;2022-07-21T00:22:06;7.63;;;4.10;;
22282;SDS011;11310;51.528;21.204;2022-07-21T00:24:36;8.65;;;3.92;;
22282;SDS011;11310;51.528;21.204;2022-07-21T00:27:05;9.07;;;4.13;;
22282;SDS011;11310;51.528;21.204;2022-07-21T00:29:34;7.25;;;4.00;;
22282;SDS011;11310;51.528;21.204;2022-07-21T00:32:05;6.35;;;3.78;;
22282;SDS011;11310;51.528;21.204;2022-07-21T00:34:35;6.93;;;4.00;;
22282;SDS011;11310;51.528;21.204;2022-07-21T00:37:04;9.85;;;5.03;;
22282;SDS011;11310;51.528;21.204;2022-07-21T00:39:33;9.15;;;3.97;;
22282;SDS011;11310;51.528;21.204;2022-07-21T00:42:03;8.02;;;3.97;;
22282;SDS011;11310;51.528;21.204;2022-07-21T00:44:33;7.75;;;3.67;;
22282;SDS011;11310;51.528;21.204;2022-07-21T00:47:02;9.73;;;3.83;;
22282;SDS011;11310;51.528;21.204;2022-07-21T00:49:33;7.88;;;4.22;;
22282;SDS011;11310;51.528;21.204;2022-07-21T00:52:02;10.88;;;4.13;;
22282;SDS011;11310;51.528;21.204;2022-07-21T00:54:31;8.77;;;3.95;;
22282;SDS011;11310;51.528;21.204;2022-07-21T00:57:00;10.50;;;4.43;;
22282;SDS011;11310;51.528;21.204;2022-07-21T00:59:29;7.35;;;4.13;;
22282;SDS011;11310;51.528;21.204;2022-07-21T01:01:59;8.40;;;4.00;;
22282;SDS011;11310;51.528;21.204;2022-07-21T01:04:29;9.05;;;3.80;;
22282;SDS011;11310;51.528;21.204;2022-07-21T01:07:01;8.00;;;4.05;;
22282;SDS011;11310;51.528;21.204;2022-07-21T01:09:34;8.63;;;4.10;;
22282;SDS011;11310;51.528;21.204;2022-07-21T01:12:03;7.50;;;4.15;;
22282;SDS011;11310;51.528;21.204;2022-07-21T01:14:33;7.43;;;3.90;;
22282;SDS011;11310;51.528;21.204;2022-07-21T01:17:02;7.25;;;3.85;;
22282;SDS011;11310;51.528;21.204;2022-07-21T01:19:34;9.55;;;3.97;;
22282;SDS011;11310;51.528;21.204;2022-07-21T01:22:06;6.80;;;3.80;;
22282;SDS011;11310;51.528;21.204;2022-07-21T01:24:35;7.15;;;3.38;;
22282;SDS011;11310;51.528;21.204;2022-07-21T01:27:04;8.15;;;4.50;;
22282;SDS011;11310;51.528;21.204;2022-07-21T01:29:33;7.07;;;3.40;;
22282;SDS011;11310;51.528;21.204;2022-07-21T01:32:02;7.65;;;3.83;;
22282;SDS011;11310;51.528;21.204;2022-07-21T01:34:32;8.23;;;3.78;;
22282;SDS011;11310;51.528;21.204;2022-07-21T01:37:02;9.98;;;3.78;;
22282;SDS011;11310;51.528;21.204;2022-07-21T01:39:33;6.82;;;3.25;;
22282;SDS011;11310;51.528;21.204;2022-07-21T01:42:19;7.32;;;3.30;;
22282;SDS011;11310;51.528;21.204;2022-07-21T01:44:50;8.18;;;3.78;;
22282;SDS011;11310;51.528;21.204;2022-07-21T01:47:20;8.38;;;3.80;;
22282;SDS011;11310;51.528;21.204;2022-07-21T01:49:50;5.88;;;3.40;;
22282;SDS011;11310;51.528;21.204;2022-07-21T01:52:19;9.30;;;3.95;;
22282;SDS011;11310;51.528;21.204;2022-07-21T01:54:49;7.75;;;3.95;;
22282;SDS011;11310;51.528;21.204;2022-07-21T01:57:19;9.38;;;3.60;;
22282;SDS011;11310;51.528;21.204;2022-07-21T01:59:48;6.40;;;3.40;;
22282;SDS011;11310;51.528;21.204;2022-07-21T02:02:17;8.10;;;3.58;;
22282;SDS011;11310;51.528;21.204;2022-07-21T02:04:49;7.82;;;3.97;;
22282;SDS011;11310;51.528;21.204;2022-07-21T02:07:17;7.32;;;3.67;;
22282;SDS011;11310;51.528;21.204;2022-07-21T02:09:47;8.48;;;4.20;;
22282;SDS011;11310;51.528;21.204;2022-07-21T02:12:17;10.13;;;3.67;;
22282;SDS011;11310;51.528;21.204;2022-07-21T02:14:47;11.25;;;3.80;;
22282;SDS011;11310;51.528;21.204;2022-07-21T02:17:16;7.38;;;3.80;;
22282;SDS011;11310;51.528;21.204;2022-07-21T02:19:48;7.13;;;3.72;;
22282;SDS011;11310;51.528;21.204;2022-07-21T02:22:17;8.68;;;3.58;;
22282;SDS011;11310;51.528;21.204;2022-07-21T02:24:45;7.28;;;3.70;;
22282;SDS011;11310;51.528;21.204;2022-07-21T02:27:14;8.70;;;3.60;;
22282;SDS011;11310;51.528;21.204;2022-07-21T02:29:46;7.82;;;4.10;;
22282;SDS011;11310;51.528;21.204;2022-07-21T02:32:18;7.90;;;3.63;;
22282;SDS011;11310;51.528;21.204;2022-07-21T02:34:48;5.75;;;3.15;;
22282;SDS011;11310;51.528;21.204;2022-07-21T02:37:19;11.95;;;3.55;;
22282;SDS011;11310;51.528;21.204;2022-07-21T02:39:51;6.55;;;3.33;;
22282;SDS011;11310;51.528;21.204;2022-07-21T02:42:21;6.50;;;3.53;;
22282;SDS011;11310;51.528;21.204;2022-07-21T02:44:53;7.50;;;4.05;;
22282;SDS011;11310;51.528;21.204;2022-07-21T02:47:23;7.60;;;3.55;;
22282;SDS011;11310;51.528;21.204;2022-07-21T02:49:52;6.47;;;3.00;;
22282;SDS011;11310;51.528;21.204;2022-07-21T02:52:24;7.95;;;3.80;;
22282;SDS011;11310;51.528;21.204;2022-07-21T02:54:55;6.72;;;3.83;;
22282;SDS011;11310;51.528;21.204;2022-07-21T02:57:26;7.43;;;3.35;;
22282;SDS011;11310;51.528;21.204;2022-07-21T02:59:57;8.10;;;3.45;;
22282;SDS011;11310;51.528;21.204;2022-07-21T03:02:26;7.60;;;3.95;;
22282;SDS011;11310;51.528;21.204;2022-07-21T03:04:56;6.57;;;3.55;;
22282;SDS011;11310;51.528;21.204;2022-07-21T03:07:25;8.95;;;4.22;;
22282;SDS011;11310;51.528;21.204;2022-07-21T03:09:53;7.18;;;3.53;;
22282;SDS011;11310;51.528;21.204;2022-07-21T03:12:22;8.00;;;3.80;;
22282;SDS011;11310;51.528;21.204;2022-07-21T03:14:53;8.05;;;3.97;;
22282;SDS011;11310;51.528;21.204;2022-07-21T03:17:28;7.38;;;3.25;;
22282;SDS011;11310;51.528;21.204;2022-07-21T03:20:01;7.78;;;3.85;;
22282;SDS011;11310;51.528;21.204;2022-07-21T03:22:40;8.52;;;3.85;;
22282;SDS011;11310;51.528;21.204;2022-07-21T03:25:17;10.40;;;3.78;;
22282;SDS011;11310;51.528;21.204;2022-07-21T03:27:49;6.45;;;3.55;;
22282;SDS011;11310;51.528;21.204;2022-07-21T03:30:25;8.15;;;3.17;;
22282;SDS011;11310;51.528;21.204;2022-07-21T03:33:02;6.55;;;3.28;;
22282;SDS011;11310;51.528;21.204;2022-07-21T03:35:32;7.55;;;3.45;;
22282;SDS011;11310;51.528;21.204;2022-07-21T03:38:03;7.55;;;3.22;;
22282;SDS011;11310;51.528;21.204;2022-07-21T03:40:34;6.70;;;3.22;;
22282;SDS011;11310;51.528;21.204;2022-07-21T03:43:05;5.07;;;2.72;;
22282;SDS011;11310;51.528;21.204;2022-07-21T03:45:37;9.63;;;3.28;;
22282;SDS011;11310;51.528;21.204;2022-07-21T03:48:10;11.35;;;3.40;;
22282;SDS011;11310;51.528;21.204;2022-07-21T03:50:54;7.38;;;2.80;;
22282;SDS011;11310;51.528;21.204;2022-07-21T03:53:24;8.70;;;2.72;;
22282;SDS011;11310;51.528;21.204;2022-07-21T03:55:53;6.38;;;3.22;;
22282;SDS011;11310;51.528;21.204;2022-07-21T03:58:22;5.88;;;3.10;;
22282;SDS011;11310;51.528;21.204;2022-07-21T04:00:51;6.18;;;3.35;;
22282;SDS011;11310;51.528;21.204;2022-07-21T04:03:25;7.63;;;3.40;;
22282;SDS011;11310;51.528;21.204;2022-07-21T04:05:55;8.55;;;4.03;;
22282;SDS011;11310;51.528;21.204;2022-07-21T04:08:23;6.53;;;3.72;;
22282;SDS011;11310;51.528;21.204;2022-07-21T04:10:54;6.67;;;3.67;;
22282;SDS011;11310;51.528;21.204;2022-07-21T04:13:26;7.38;;;3.58;;
22282;SDS011;11310;51.528;21.204;2022-07-21T04:15:55;6.75;;;3.40;;
22282;SDS011;11310;51.528;21.204;2022-07-21T04:18:26;6.30;;;3.42;;
22282;SDS011;11310;51.528;21.204;2022-07-21T04:20:56;7.57;;;3.35;;
22282;SDS011;11310;51.528;21.204;2022-07-21T04:23:28;5.38;;;3.10;;
22282;SDS011;11310;51.528;21.204;2022-07-21T04:25:58;8.07;;;3.20;;
22282;SDS011;11310;51.528;21.204;2022-07-21T04:28:28;5.80;;;3.28;;
22282;SDS011;11310;51.528;21.204;2022-07-21T04:31:00;8.40;;;3.42;;
22282;SDS011;11310;51.528;21.204;2022-07-21T04:33:45;7.60;;;2.75;;
22282;SDS011;11310;51.528;21.204;2022-07-21T04:36:21;5.15;;;3.00;;
22282;SDS011;11310;51.528;21.204;2022-07-21T04:38:51;5.18;;;3.22;;
22282;SDS011;11310;51.528;21.204;2022-07-21T04:41:25;7.00;;;3.10;;
22282;SDS011;11310;51.528;21.204;2022-07-21T04:43:55;6.63;;;3.28;;
22282;SDS011;11310;51.528;21.204;2022-07-21T04:46:25;5.78;;;3.42;;
22282;SDS011;11310;51.528;21.204;2022-07-21T04:48:58;6.80;;;3.17;;
22282;SDS011;11310;51.528;21.204;2022-07-21T04:51:31;6.55;;;3.30;;
22282;SDS011;11310;51.528;21.204;2022-07-21T04:54:00;7.30;;;3.05;;
22282;SDS011;11310;51.528;21.204;2022-07-21T04:56:30;6.03;;;3.20;;
22282;SDS011;11310;51.528;21.204;2022-07-21T04:59:00;6.75;;;3.20;;
22282;SDS011;11310;51.528;21.204;2022-07-21T05:01:31;7.65;;;3.25;;
22282;SDS011;11310;51.528;21.204;2022-07-21T05:04:04;6.90;;;3.72;;
22282;SDS011;11310;51.528;21.204;2022-07-21T05:06:35;5.50;;;3.13;;
22282;SDS011;11310;51.528;21.204;2022-07-21T05:09:09;5.93;;;3.22;;
22282;SDS011;11310;51.528;21.204;2022-07-21T05:11:38;8.10;;;3.28;;
22282;SDS011;11310;51.528;21.204;2022-07-21T05:14:09;6.63;;;2.95;;
22282;SDS011;11310;51.528;21.204;2022-07-21T05:16:41;5.40;;;2.70;;
22282;SDS011;11310;51.528;21.204;2022-07-21T05:19:12;5.18;;;2.88;;
22282;SDS011;11310;51.528;21.204;2022-07-21T05:21:42;8.98;;;3.13;;
22282;SDS011;11310;51.528;21.204;2022-07-21T05:24:15;5.03;;;2.63;;
22282;SDS011;11310;51.528;21.204;2022-07-21T05:26:44;7.88;;;2.47;;
22282;SDS011;11310;51.528;21.204;2022-07-21T05:29:13;4.43;;;2.15;;
22282;SDS011;11310;51.528;21.204;2022-07-21T05:31:42;7.55;;;2.63;;
22282;SDS011;11310;51.528;21.204;2022-07-21T05:34:14;7.18;;;2.65;;
22282;SDS011;11310;51.528;21.204;2022-07-21T05:36:43;7.05;;;3.15;;
22282;SDS011;11310;51.528;21.204;2022-07-21T05:39:12;6.60;;;2.47;;
22282;SDS011;11310;51.528;21.204;2022-07-21T05:41:42;7.57;;;2.63;;
22282;SDS011;11310;51.528;21.204;2022-07-21T05:44:14;9.32;;;2.30;;
22282;SDS011;11310;51.528;21.204;2022-07-21T05:46:43;6.30;;;2.53;;
22282;SDS011;11310;51.528;21.204;2022-07-21T05:49:14;6.50;;;2.40;;
22282;SDS011;11310;51.528;21.204;2022-07-21T05:51:43;6.20;;;2.50;;
22282;SDS011;11310;51.528;21.204;2022-07-21T05:54:12;4.85;;;2.17;;
22282;SDS011;11310;51.528;21.204;2022-07-21T05:56:41;2.90;;;1.70;;
22282;SDS011;11310;51.528;21.204;2022-07-21T05:59:11;3.05;;;1.35;;
22282;SDS011;11310;51.528;21.204;2022-07-21T06:01:41;2.00;;;1.25;;
22282;SDS011;11310;51.528;21.204;2022-07-21T06:04:17;2.80;;;1.23;;
22282;SDS011;11310;51.528;21.204;2022-07-21T06:06:47;4.00;;;1.38;;
22282;SDS011;11310;51.528;21.204;2022-07-21T06:09:16;3.35;;;1.58;;
22282;SDS011;11310;51.528;21.204;2022-07-21T06:11:45;2.22;;;1.20;;
22282;SDS011;11310;51.528;21.204;2022-07-21T06:14:14;3.35;;;1.90;;
22282;SDS011;11310;51.528;21.204;2022-07-21T06:16:43;1.63;;;0.88;;
22282;SDS011;11310;51.528;21.204;2022-07-21T06:19:13;3.58;;;1.67;;
22282;SDS011;11310;51.528;21.204;2022-07-21T06:21:43;3.30;;;1.05;;
22282;SDS011;11310;51.528;21.204;2022-07-21T06:24:13;2.83;;;1.07;;
22282;SDS011;11310;51.528;21.204;2022-07-21T06:26:42;6.60;;;1.50;;
22282;SDS011;11310;51.528;21.204;2022-07-21T06:29:11;2.95;;;0.80;;
22282;SDS011;11310;51.528;21.204;2022-07-21T06:31:41;4.30;;;1.42;;
22282;SDS011;11310;51.528;21.204;2022-07-21T06:34:10;2.65;;;1.05;;
22282;SDS011;11310;51.528;21.204;2022-07-21T06:36:39;2.60;;;0.98;;
22282;SDS011;11310;51.528;21.204;2022-07-21T06:39:14;1.52;;;0.90;;
22282;SDS011;11310;51.528;21.204;2022-07-21T06:41:43;2.63;;;0.75;;
22282;SDS011;11310;51.528;21.204;2022-07-21T06:44:12;3.13;;;0.90;;
22282;SDS011;11310;51.528;21.204;2022-07-21T06:46:42;2.72;;;0.73;;
22282;SDS011;11310;51.528;21.204;2022-07-21T06:49:11;1.30;;;0.80;;
22282;SDS011;11310;51.528;21.204;2022-07-21T06:54:15;1.65;;;0.60;;
22282;SDS011;11310;51.528;21.204;2022-07-21T06:56:44;2.70;;;0.88;;
22282;SDS011;11310;51.528;21.204;2022-07-21T06:59:14;2.40;;;0.75;;
22282;SDS011;11310;51.528;21.204;2022-07-21T07:01:46;2.22;;;1.05;;
22282;SDS011;11310;51.528;21.204;2022-07-21T07:04:21;1.65;;;0.90;;
22282;SDS011;11310;51.528;21.204;2022-07-21T07:06:50;2.15;;;0.82;;
22282;SDS011;11310;51.528;21.204;2022-07-21T07:09:23;3.05;;;0.90;;
22282;SDS011;11310;51.528;21.204;2022-07-21T07:11:52;2.92;;;0.80;;
22282;SDS011;11310;51.528;21.204;2022-07-21T07:14:42;3.97;;;1.00;;
22282;SDS011;11310;51.528;21.204;2022-07-21T07:17:14;1.20;;;0.70;;
22282;SDS011;11310;51.528;21.204;2022-07-21T07:19:48;0.95;;;0.73;;
22282;SDS011;11310;51.528;21.204;2022-07-21T07:22:19;2.05;;;0.85;;
22282;SDS011;11310;51.528;21.204;2022-07-21T07:24:49;1.33;;;0.57;;
22282;SDS011;11310;51.528;21.204;2022-07-21T07:27:18;24.02;;;3.75;;
22282;SDS011;11310;51.528;21.204;2022-07-21T07:29:55;3.63;;;1.40;;
22282;SDS011;11310;51.528;21.204;2022-07-21T07:32:24;3.25;;;0.80;;
22282;SDS011;11310;51.528;21.204;2022-07-21T07:34:53;1.92;;;0.85;;
22282;SDS011;11310;51.528;21.204;2022-07-21T07:37:22;2.28;;;0.75;;
22282;SDS011;11310;51.528;21.204;2022-07-21T07:39:53;1.83;;;0.80;;
22282;SDS011;11310;51.528;21.204;2022-07-21T07:42:21;1.77;;;0.93;;
22282;SDS011;11310;51.528;21.204;2022-07-21T07:44:51;2.83;;;1.05;;
22282;SDS011;11310;51.528;21.204;2022-07-21T07:47:20;2.08;;;0.80;;
22282;SDS011;11310;51.528;21.204;2022-07-21T07:49:49;1.42;;;1.02;;
22282;SDS011;11310;51.528;21.204;2022-07-21T07:52:19;2.10;;;0.80;;
22282;SDS011;11310;51.528;21.204;2022-07-21T07:54:48;3.58;;;0.90;;
22282;SDS011;11310;51.528;21.204;2022-07-21T07:57:19;2.03;;;1.10;;
22282;SDS011;11310;51.528;21.204;2022-07-21T07:59:48;2.70;;;1.25;;
22282;SDS011;11310;51.528;21.204;2022-07-21T08:02:17;2.13;;;0.98;;
22282;SDS011;11310;51.528;21.204;2022-07-21T08:04:46;0.88;;;0.70;;
22282;SDS011;11310;51.528;21.204;2022-07-21T08:07:14;4.57;;;0.90;;
22282;SDS011;11310;51.528;21.204;2022-07-21T08:09:43;2.33;;;0.85;;
22282;SDS011;11310;51.528;21.204;2022-07-21T08:12:12;2.65;;;1.50;;
22282;SDS011;11310;51.528;21.204;2022-07-21T08:14:43;3.90;;;1.13;;
22282;SDS011;11310;51.528;21.204;2022-07-21T08:17:11;1.83;;;1.02;;
22282;SDS011;11310;51.528;21.204;2022-07-21T08:19:40;1.33;;;0.75;;
22282;SDS011;11310;51.528;21.204;2022-07-21T08:22:09;2.08;;;0.70;;
22282;SDS011;11310;51.528;21.204;2022-07-21T08:24:41;3.67;;;1.00;;
22282;SDS011;11310;51.528;21.204;2022-07-21T08:27:10;1.33;;;0.75;;
22282;SDS011;11310;51.528;21.204;2022-07-21T08:29:38;1.42;;;0.90;;
22282;SDS011;11310;51.528;21.204;2022-07-21T08:32:09;3.08;;;0.82;;
22282;SDS011;11310;51.528;21.204;2022-07-21T08:34:38;2.15;;;0.82;;
22282;SDS011;11310;51.528;21.204;2022-07-21T08:37:07;3.20;;;0.90;;
22282;SDS011;11310;51.528;21.204;2022-07-21T08:39:35;3.70;;;0.73;;
22282;SDS011;11310;51.528;21.204;2022-07-21T08:42:05;2.33;;;1.10;;
22282;SDS011;11310;51.528;21.204;2022-07-21T08:44:34;2.58;;;0.90;;
22282;SDS011;11310;51.528;21.204;2022-07-21T08:47:04;3.10;;;0.85;;
22282;SDS011;11310;51.528;21.204;2022-07-21T08:49:35;2.38;;;1.00;;
22282;SDS011;11310;51.528;21.204;2022-07-21T08:52:05;2.97;;;0.80;;
22282;SDS011;11310;51.528;21.204;2022-07-21T08:54:35;1.33;;;0.70;;
22282;SDS011;11310;51.528;21.204;2022-07-21T08:57:04;1.90;;;0.80;;
22282;SDS011;11310;51.528;21.204;2022-07-21T08:59:35;2.42;;;0.70;;
22282;SDS011;11310;51.528;21.204;2022-07-21T09:02:04;3.10;;;0.90;;
22282;SDS011;11310;51.528;21.204;2022-07-21T09:04:34;2.05;;;1.00;;
22282;SDS011;11310;51.528;21.204;2022-07-21T09:07:07;3.22;;;0.80;;
22282;SDS011;11310;51.528;21.204;2022-07-21T09:09:36;1.80;;;0.80;;
22282;SDS011;11310;51.528;21.204;2022-07-21T09:12:05;3.17;;;0.90;;
22282;SDS011;11310;51.528;21.204;2022-07-21T09:14:35;2.33;;;0.70;;
22282;SDS011;11310;51.528;21.204;2022-07-21T09:17:04;1.50;;;0.70;;
22282;SDS011;11310;51.528;21.204;2022-07-21T09:19:37;1.48;;;0.70;;
22282;SDS011;11310;51.528;21.204;2022-07-21T09:22:11;1.50;;;0.77;;
22282;SDS011;11310;51.528;21.204;2022-07-21T09:24:42;1.73;;;0.82;;
22282;SDS011;11310;51.528;21.204;2022-07-21T09:27:17;2.10;;;1.08;;
22282;SDS011;11310;51.528;21.204;2022-07-21T09:29:49;1.17;;;0.88;;
22282;SDS011;11310;51.528;21.204;2022-07-21T09:32:21;2.10;;;0.88;;
22282;SDS011;11310;51.528;21.204;2022-07-21T09:34:54;1.08;;;0.70;;
22282;SDS011;11310;51.528;21.204;2022-07-21T09:37:32;3.00;;;0.65;;
22282;SDS011;11310;51.528;21.204;2022-07-21T09:40:05;1.60;;;1.00;;
22282;SDS011;11310;51.528;21.204;2022-07-21T09:42:48;2.67;;;0.98;;
22282;SDS011;11310;51.528;21.204;2022-07-21T09:45:19;3.17;;;0.98;;
22282;SDS011;11310;51.528;21.204;2022-07-21T09:47:48;4.30;;;0.90;;
22282;SDS011;11310;51.528;21.204;2022-07-21T09:50:18;2.60;;;0.90;;
22282;SDS011;11310;51.528;21.204;2022-07-21T09:52:53;1.00;;;0.52;;
22282;SDS011;11310;51.528;21.204;2022-07-21T09:55:24;2.03;;;1.10;;
22282;SDS011;11310;51.528;21.204;2022-07-21T09:57:57;1.80;;;0.95;;
22282;SDS011;11310;51.528;21.204;2022-07-21T10:00:28;1.55;;;0.80;;
22282;SDS011;11310;51.528;21.204;2022-07-21T10:02:57;2.20;;;0.93;;
22282;SDS011;11310;51.528;21.204;2022-07-21T10:05:27;1.63;;;0.80;;
22282;SDS011;11310;51.528;21.204;2022-07-21T10:08:01;2.20;;;0.73;;
22282;SDS011;11310;51.528;21.204;2022-07-21T10:10:33;2.70;;;0.70;;
22282;SDS011;11310;51.528;21.204;2022-07-21T10:13:22;0.98;;;0.80;;
22282;SDS011;11310;51.528;21.204;2022-07-21T10:15:55;2.08;;;0.90;;
22282;SDS011;11310;51.528;21.204;2022-07-21T10:18:26;1.10;;;0.65;;
22282;SDS011;11310;51.528;21.204;2022-07-21T10:20:59;1.92;;;0.88;;
22282;SDS011;11310;51.528;21.204;2022-07-21T10:23:35;1.98;;;0.73;;
22282;SDS011;11310;51.528;21.204;2022-07-21T10:26:08;3.85;;;1.20;;
22282;SDS011;11310;51.528;21.204;2022-07-21T10:28:39;1.73;;;0.60;;
22282;SDS011;11310;51.528;21.204;2022-07-21T10:31:15;2.58;;;0.88;;
22282;SDS011;11310;51.528;21.204;2022-07-21T10:33:57;2.45;;;1.00;;
22282;SDS011;11310;51.528;21.204;2022-07-21T10:39:25;1.75;;;0.80;;
22282;SDS011;11310;51.528;21.204;2022-07-21T10:41:55;1.27;;;1.08;;
22282;SDS011;11310;51.528;21.204;2022-07-21T10:44:46;2.00;;;1.08;;
22282;SDS011;11310;51.528;21.204;2022-07-21T10:47:16;2.05;;;1.13;;
22282;SDS011;11310;51.528;21.204;2022-07-21T10:49:51;4.20;;;0.98;;
22282;SDS011;11310;51.528;21.204;2022-07-21T10:55:38;1.48;;;0.90;;
22282;SDS011;11310;51.528;21.204;2022-07-21T10:58:15;1.75;;;0.80;;
22282;SDS011;11310;51.528;21.204;2022-07-21T11:00:51;2.45;;;1.00;;
22282;SDS011;11310;51.528;21.204;2022-07-21T11:03:22;1.40;;;1.00;;
22282;SDS011;11310;51.528;21.204;2022-07-21T11:09:05;1.85;;;0.80;;
22282;SDS011;11310;51.528;21.204;2022-07-21T11:11:37;2.97;;;0.93;;
22282;SDS011;11310;51.528;21.204;2022-07-21T11:14:10;2.47;;;1.00;;
22282;SDS011;11310;51.528;21.204;2022-07-21T11:19:27;7.00;;;1.45;;
22282;SDS011;11310;51.528;21.204;2022-07-21T11:22:02;1.15;;;0.73;;
22282;SDS011;11310;51.528;21.204;2022-07-21T11:24:32;3.05;;;0.98;;
22282;SDS011;11310;51.528;21.204;2022-07-21T11:27:04;1.10;;;0.80;;
22282;SDS011;11310;51.528;21.204;2022-07-21T11:29:35;3.83;;;1.15;;
22282;SDS011;11310;51.528;21.204;2022-07-21T11:32:06;6.10;;;0.80;;
22282;SDS011;11310;51.528;21.204;2022-07-21T11:34:39;3.58;;;0.80;;
22282;SDS011;11310;51.528;21.204;2022-07-21T11:37:11;4.15;;;1.38;;
22282;SDS011;11310;51.528;21.204;2022-07-21T11:40:03;2.30;;;0.95;;
22282;SDS011;11310;51.528;21.204;2022-07-21T11:42:35;1.95;;;1.08;;
22282;SDS011;11310;51.528;21.204;2022-07-21T11:45:05;1.25;;;0.75;;
22282;SDS011;11310;51.528;21.204;2022-07-21T11:47:36;3.53;;;1.27;;
22282;SDS011;11310;51.528;21.204;2022-07-21T11:50:06;5.78;;;1.45;;
22282;SDS011;11310;51.528;21.204;2022-07-21T11:52:37;3.00;;;1.20;;
22282;SDS011;11310;51.528;21.204;2022-07-21T11:55:08;4.38;;;1.17;;
22282;SDS011;11310;51.528;21.204;2022-07-21T11:57:42;3.50;;;1.15;;
22282;SDS011;11310;51.528;21.204;2022-07-21T12:00:12;2.83;;;1.13;;
22282;SDS011;11310;51.528;21.204;2022-07-21T12:02:47;3.10;;;1.25;;
22282;SDS011;11310;51.528;21.204;2022-07-21T12:05:16;3.10;;;1.13;;
22282;SDS011;11310;51.528;21.204;2022-07-21T12:07:46;9.20;;;1.30;;
22282;SDS011;11310;51.528;21.204;2022-07-21T12:10:21;3.25;;;1.10;;
22282;SDS011;11310;51.528;21.204;2022-07-21T12:12:57;2.47;;;1.15;;
22282;SDS011;11310;51.528;21.204;2022-07-21T12:15:28;4.32;;;0.90;;
22282;SDS011;11310;51.528;21.204;2022-07-21T12:18:02;3.90;;;1.13;;
22282;SDS011;11310;51.528;21.204;2022-07-21T12:23:02;4.75;;;1.23;;
22282;SDS011;11310;51.528;21.204;2022-07-21T12:25:45;2.13;;;0.88;;
22282;SDS011;11310;51.528;21.204;2022-07-21T12:28:28;2.78;;;1.20;;
22282;SDS011;11310;51.528;21.204;2022-07-21T12:31:10;1.55;;;0.98;;
22282;SDS011;11310;51.528;21.204;2022-07-21T12:36:29;2.85;;;1.27;;
22282;SDS011;11310;51.528;21.204;2022-07-21T12:39:04;2.28;;;1.10;;
22282;SDS011;11310;51.528;21.204;2022-07-21T12:42:03;2.63;;;1.13;;
22282;SDS011;11310;51.528;21.204;2022-07-21T12:44:35;6.90;;;1.40;;
22282;SDS011;11310;51.528;21.204;2022-07-21T12:47:12;2.15;;;1.08;;
22282;SDS011;11310;51.528;21.204;2022-07-21T12:49:59;2.60;;;1.00;;
22282;SDS011;11310;51.528;21.204;2022-07-21T12:52:45;1.80;;;1.10;;
22282;SDS011;11310;51.528;21.204;2022-07-21T12:55:14;4.72;;;1.15;;
22282;SDS011;11310;51.528;21.204;2022-07-21T12:57:42;3.38;;;1.33;;
22282;SDS011;11310;51.528;21.204;2022-07-21T13:00:13;1.63;;;1.10;;
22282;SDS011;11310;51.528;21.204;2022-07-21T13:02:45;2.72;;;1.10;;
22282;SDS011;11310;51.528;21.204;2022-07-21T13:05:14;1.42;;;1.00;;
22282;SDS011;11310;51.528;21.204;2022-07-21T13:07:44;1.95;;;1.10;;
22282;SDS011;11310;51.528;21.204;2022-07-21T13:10:13;2.83;;;1.42;;
22282;SDS011;11310;51.528;21.204;2022-07-21T13:12:42;4.18;;;1.40;;
22282;SDS011;11310;51.528;21.204;2022-07-21T13:15:12;4.93;;;1.40;;
22282;SDS011;11310;51.528;21.204;2022-07-21T13:17:41;2.87;;;1.30;;
22282;SDS011;11310;51.528;21.204;2022-07-21T13:20:11;8.00;;;1.10;;
22282;SDS011;11310;51.528;21.204;2022-07-21T13:22:42;3.65;;;1.45;;
22282;SDS011;11310;51.528;21.204;2022-07-21T13:25:21;9.50;;;1.60;;
22282;SDS011;11310;51.528;21.204;2022-07-21T13:27:56;7.15;;;1.60;;
22282;SDS011;11310;51.528;21.204;2022-07-21T13:30:26;1.88;;;1.42;;
22282;SDS011;11310;51.528;21.204;2022-07-21T13:32:55;2.95;;;1.40;;
22282;SDS011;11310;51.528;21.204;2022-07-21T13:35:24;3.00;;;1.05;;
22282;SDS011;11310;51.528;21.204;2022-07-21T13:37:54;2.13;;;1.20;;
22282;SDS011;11310;51.528;21.204;2022-07-21T13:40:23;2.38;;;1.20;;
22282;SDS011;11310;51.528;21.204;2022-07-21T13:43:13;3.75;;;1.83;;
22282;SDS011;11310;51.528;21.204;2022-07-21T13:46:05;5.43;;;1.50;;
22282;SDS011;11310;51.528;21.204;2022-07-21T13:48:33;3.55;;;1.20;;
22282;SDS011;11310;51.528;21.204;2022-07-21T13:51:10;2.75;;;1.10;;
22282;SDS011;11310;51.528;21.204;2022-07-21T13:53:40;3.65;;;1.58;;
22282;SDS011;11310;51.528;21.204;2022-07-21T13:56:10;3.20;;;1.50;;
22282;SDS011;11310;51.528;21.204;2022-07-21T13:58:39;3.92;;;1.60;;
22282;SDS011;11310;51.528;21.204;2022-07-21T14:01:10;10.30;;;1.80;;
22282;SDS011;11310;51.528;21.204;2022-07-21T14:03:40;3.65;;;1.45;;
22282;SDS011;11310;51.528;21.204;2022-07-21T14:06:10;4.55;;;1.52;;
22282;SDS011;11310;51.528;21.204;2022-07-21T14:08:39;3.65;;;1.38;;
22282;SDS011;11310;51.528;21.204;2022-07-21T14:11:08;2.88;;;1.38;;
22282;SDS011;11310;51.528;21.204;2022-07-21T14:13:40;3.80;;;1.50;;
22282;SDS011;11310;51.528;21.204;2022-07-21T14:16:12;6.30;;;1.38;;
22282;SDS011;11310;51.528;21.204;2022-07-21T14:18:41;2.75;;;1.38;;
22282;SDS011;11310;51.528;21.204;2022-07-21T14:21:10;5.35;;;1.40;;
22282;SDS011;11310;51.528;21.204;2022-07-21T14:23:38;2.75;;;1.40;;
22282;SDS011;11310;51.528;21.204;2022-07-21T14:26:07;2.53;;;1.23;;
22282;SDS011;11310;51.528;21.204;2022-07-21T14:28:36;3.17;;;1.50;;
22282;SDS011;11310;51.528;21.204;2022-07-21T14:31:06;3.85;;;1.38;;
22282;SDS011;11310;51.528;21.204;2022-07-21T14:33:42;4.57;;;1.60;;
22282;SDS011;11310;51.528;21.204;2022-07-21T14:36:11;4.30;;;1.50;;
22282;SDS011;11310;51.528;21.204;2022-07-21T14:38:39;4.88;;;1.73;;
22282;SDS011;11310;51.528;21.204;2022-07-21T14:41:08;2.33;;;1.23;;
22282;SDS011;11310;51.528;21.204;2022-07-21T14:43:37;6.93;;;2.10;;
22282;SDS011;11310;51.528;21.204;2022-07-21T14:46:06;8.60;;;1.40;;
22282;SDS011;11310;51.528;21.204;2022-07-21T14:48:35;4.55;;;1.60;;
22282;SDS011;11310;51.528;21.204;2022-07-21T14:51:05;6.30;;;1.60;;
22282;SDS011;11310;51.528;21.204;2022-07-21T14:53:35;3.67;;;1.65;;
22282;SDS011;11310;51.528;21.204;2022-07-21T14:56:04;1.83;;;1.00;;
22282;SDS011;11310;51.528;21.204;2022-07-21T14:58:33;4.38;;;1.48;;
22282;SDS011;11310;51.528;21.204;2022-07-21T15:01:02;3.78;;;1.75;;
22282;SDS011;11310;51.528;21.204;2022-07-21T15:03:30;7.07;;;1.60;;
22282;SDS011;11310;51.528;21.204;2022-07-21T15:06:02;5.35;;;1.70;;
22282;SDS011;11310;51.528;21.204;2022-07-21T15:08:33;9.30;;;1.85;;
22282;SDS011;11310;51.528;21.204;2022-07-21T15:11:03;6.40;;;2.45;;
22282;SDS011;11310;51.528;21.204;2022-07-21T15:13:32;13.40;;;2.40;;
22282;SDS011;11310;51.528;21.204;2022-07-21T15:16:00;6.47;;;1.33;;
22282;SDS011;11310;51.528;21.204;2022-07-21T15:18:29;2.92;;;1.42;;